createdAt,value
2023-03-31T00:04:31.012Z,8.32
2023-03-31T00:10:17.318Z,8.16
2023-03-31T00:15:23.600Z,8.02
2023-03-31T00:20:55.257Z,7.93
2023-03-31T00:26:06.786Z,7.83
2023-03-31T00:31:12.287Z,7.74
2023-03-31T00:36:21.581Z,7.72
2023-03-31T00:42:46.538Z,7.72
2023-03-31T00:49:14.011Z,7.69
2023-03-31T00:55:10.557Z,7.71
2023-03-31T01:00:59.568Z,7.74
2023-03-31T01:06:08.273Z,7.74
2023-03-31T01:11:16.997Z,7.75
2023-03-31T01:16:31.462Z,7.73
2023-03-31T01:22:40.561Z,7.70
2023-03-31T01:29:21.374Z,7.71
2023-03-31T01:36:03.906Z,7.71
2023-03-31T01:43:03.155Z,7.61
2023-03-31T01:50:25.721Z,7.47
2023-03-31T01:56:28.916Z,7.33
2023-03-31T02:02:42.331Z,7.26
2023-03-31T02:08:50.114Z,7.28
2023-03-31T02:14:18.734Z,7.33
2023-03-31T02:19:48.792Z,7.40
2023-03-31T02:25:00.315Z,7.47
2023-03-31T02:32:13.178Z,7.51
2023-03-31T02:38:38.930Z,7.56
2023-03-31T02:44:44.967Z,7.53
2023-03-31T02:50:50.892Z,7.44
2023-03-31T02:57:49.031Z,7.36
2023-03-31T03:04:45.329Z,7.31
2023-03-31T03:11:36.259Z,7.33
2023-03-31T03:17:42.151Z,7.33
2023-03-31T03:24:24.001Z,7.32
2023-03-31T03:30:31.707Z,7.32
2023-03-31T03:37:24.777Z,7.30
2023-03-31T03:43:19.515Z,7.27
2023-03-31T03:49:29.175Z,7.27
2023-03-31T03:55:45.308Z,7.24
2023-03-31T04:01:02.418Z,7.10
2023-03-31T04:07:55.956Z,6.90
2023-03-31T04:13:58.317Z,6.68
2023-03-31T04:20:13.689Z,6.51
2023-03-31T04:25:23.165Z,6.39
2023-03-31T04:30:57.201Z,6.27
2023-03-31T04:37:14.141Z,6.15
2023-03-31T04:42:36.632Z,6.06
2023-03-31T04:47:44.811Z,5.99
2023-03-31T04:53:09.284Z,5.97
2023-03-31T04:58:40.917Z,5.95
2023-03-31T05:04:10.345Z,5.96
2023-03-31T05:10:18.543Z,5.99
2023-03-31T05:16:12.309Z,6.06
2023-03-31T05:21:39.812Z,6.13
2023-03-31T05:26:57.547Z,6.24
2023-03-31T05:32:18.483Z,6.35
2023-03-31T05:37:39.928Z,6.47
2023-03-31T05:42:43.154Z,6.60
2023-03-31T05:48:08.269Z,6.75
2023-03-31T05:53:54.241Z,6.96
2023-03-31T05:59:00.840Z,7.17
2023-03-31T06:04:33.820Z,7.42
2023-03-31T06:10:14.990Z,7.96
2023-03-31T06:15:41.654Z,8.51
2023-03-31T06:21:26.731Z,8.90
2023-03-31T06:26:44.772Z,9.07
2023-03-31T06:31:56.340Z,9.22
2023-03-31T06:37:41.583Z,9.39
2023-03-31T06:42:57.911Z,9.58
2023-03-31T06:48:05.126Z,9.78
2023-03-31T06:53:08.523Z,9.96
2023-03-31T06:58:12.416Z,10.13
2023-03-31T07:03:19.051Z,10.30
2023-03-31T07:08:36.216Z,10.46
2023-03-31T07:14:12.691Z,10.67
2023-03-31T07:19:25.530Z,10.93
2023-03-31T07:24:27.981Z,11.18
2023-03-31T07:29:30.313Z,11.55
2023-03-31T07:34:49.004Z,11.94
2023-03-31T07:40:05.136Z,12.20
2023-03-31T07:45:11.254Z,12.39
2023-03-31T07:50:15.199Z,12.52
2023-03-31T07:55:21.266Z,12.65
2023-03-31T08:00:35.127Z,12.83
2023-03-31T08:05:37.908Z,13.06
2023-03-31T08:10:50.979Z,13.30
2023-03-31T08:16:17.514Z,13.44
2023-03-31T08:21:32.608Z,13.59
2023-03-31T08:26:48.073Z,13.69
2023-03-31T08:31:50.551Z,13.61
2023-03-31T08:36:53.594Z,13.63
2023-03-31T08:42:02.571Z,13.68
2023-03-31T08:47:11.032Z,13.73
2023-03-31T08:52:19.006Z,13.77
2023-03-31T08:57:33.166Z,13.91
2023-03-31T09:03:05.009Z,14.07
2023-03-31T09:08:38.734Z,14.24
2023-03-31T09:14:02.784Z,14.50
2023-03-31T09:19:19.807Z,14.78
2023-03-31T09:24:44.800Z,14.83
2023-03-31T09:29:56.804Z,14.85
2023-03-31T09:35:14.550Z,14.91
2023-03-31T09:40:29.070Z,14.93
2023-03-31T09:45:34.007Z,14.98
2023-03-31T09:51:09.061Z,15.19
2023-03-31T09:56:11.694Z,15.62
2023-03-31T10:01:16.014Z,16.00
2023-03-31T10:06:19.041Z,16.05
2023-03-31T10:11:22.170Z,16.06
2023-03-31T10:16:30.207Z,15.92
2023-03-31T10:21:38.588Z,15.75
2023-03-31T10:26:47.089Z,15.64
2023-03-31T10:31:49.640Z,15.60
2023-03-31T10:37:21.527Z,15.55
2023-03-31T10:43:04.106Z,15.58
2023-03-31T10:48:50.300Z,15.70
2023-03-31T10:54:10.531Z,15.92
2023-03-31T11:00:11.253Z,15.90
2023-03-31T11:05:37.495Z,15.77
2023-03-31T11:10:47.852Z,15.75
2023-03-31T11:16:37.144Z,15.77
2023-03-31T11:22:19.747Z,15.60
2023-03-31T11:28:01.164Z,15.44
2023-03-31T11:34:12.104Z,15.36
2023-03-31T11:39:35.167Z,15.47
2023-03-31T11:44:54.813Z,15.68
2023-03-31T11:50:42.485Z,15.77
2023-03-31T11:56:56.808Z,15.69
2023-03-31T12:03:27.432Z,15.49
2023-03-31T12:09:36.962Z,15.54
2023-03-31T12:15:27.823Z,15.79
2023-03-31T12:20:38.370Z,16.14
2023-03-31T12:26:33.504Z,16.54
2023-03-31T12:31:43.563Z,16.96
2023-03-31T12:37:10.050Z,16.92
2023-03-31T12:42:54.961Z,16.74
2023-03-31T12:48:49.401Z,16.56
2023-03-31T12:54:50.174Z,16.46
2023-03-31T13:00:39.403Z,16.30
2023-03-31T13:07:02.492Z,16.04
2023-03-31T13:12:33.118Z,15.91
2023-03-31T13:18:00.668Z,15.78
2023-03-31T13:23:19.956Z,15.50
2023-03-31T13:28:42.428Z,15.18
2023-03-31T13:34:05.010Z,14.90
2023-03-31T13:40:07.602Z,14.68
2023-03-31T13:46:23.543Z,14.40
2023-03-31T13:52:02.333Z,14.15
2023-03-31T13:57:53.018Z,13.91
2023-03-31T14:03:51.429Z,13.69
2023-03-31T14:09:12.469Z,13.43
2023-03-31T14:14:19.485Z,13.30
2023-03-31T14:20:00.767Z,13.25
2023-03-31T14:26:23.931Z,13.13
2023-03-31T14:31:40.380Z,12.98
2023-03-31T14:37:17.741Z,12.81
2023-03-31T14:42:57.443Z,12.72
2023-03-31T14:48:16.477Z,12.69
2023-03-31T14:53:38.212Z,12.60
2023-03-31T14:58:50.152Z,12.51
2023-03-31T15:04:46.425Z,12.44
2023-03-31T15:09:56.414Z,12.53
2023-03-31T15:15:05.089Z,12.68
2023-03-31T15:20:35.447Z,12.95
2023-03-31T15:25:54.731Z,13.36
2023-03-31T15:31:09.613Z,13.65
2023-03-31T15:36:25.953Z,13.76
2023-03-31T15:41:41.646Z,13.77
2023-03-31T15:47:25.329Z,13.68
2023-03-31T15:52:35.197Z,13.50
2023-03-31T15:57:47.588Z,13.32
2023-03-31T16:03:05.765Z,13.15
2023-03-31T16:08:42.889Z,13.00
2023-03-31T16:14:23.053Z,12.85
2023-03-31T16:19:39.266Z,12.76
2023-03-31T16:24:46.792Z,12.68
2023-03-31T16:30:09.168Z,12.62
2023-03-31T16:35:19.884Z,12.54
2023-03-31T16:40:51.746Z,12.48
2023-03-31T16:46:04.182Z,12.43
2023-03-31T16:51:08.863Z,12.38
2023-03-31T16:56:15.364Z,12.34
2023-03-31T17:01:20.854Z,12.32
2023-03-31T17:06:47.550Z,12.28
2023-03-31T17:12:02.000Z,12.23
2023-03-31T17:17:07.601Z,12.13
2023-03-31T17:22:15.989Z,11.84
2023-03-31T17:28:04.319Z,11.29
2023-03-31T17:34:17.988Z,10.78
2023-03-31T17:40:18.572Z,10.43
2023-03-31T17:47:00.113Z,10.19
2023-03-31T17:53:28.421Z,10.02
2023-03-31T17:59:26.508Z,9.85
2023-03-31T18:04:55.036Z,9.73
2023-03-31T18:10:23.115Z,9.62
2023-03-31T18:16:49.283Z,9.50
2023-03-31T18:22:37.876Z,9.33
2023-03-31T18:29:02.858Z,9.12
2023-03-31T18:35:45.519Z,8.96
2023-03-31T18:42:25.677Z,8.83
2023-03-31T18:48:35.383Z,8.74
2023-03-31T18:55:29.232Z,8.68
2023-03-31T19:01:56.265Z,8.74
2023-03-31T19:08:11.156Z,8.86
2023-03-31T19:14:56.327Z,8.93
2023-03-31T19:21:50.382Z,8.93
2023-03-31T19:28:26.106Z,8.94
2023-03-31T19:35:09.820Z,8.99
2023-03-31T19:41:20.737Z,9.02
2023-03-31T19:47:54.310Z,9.02
2023-03-31T19:53:50.749Z,9.05
2023-03-31T19:59:33.926Z,9.09
2023-03-31T20:05:49.980Z,9.18
2023-03-31T20:11:54.879Z,9.30
2023-03-31T20:17:23.114Z,9.39
2023-03-31T20:23:54.099Z,9.43
2023-03-31T20:30:38.370Z,9.41
2023-03-31T20:37:05.309Z,9.36
2023-03-31T20:42:45.351Z,9.32
2023-03-31T20:49:31.602Z,9.32
2023-03-31T20:56:05.925Z,9.38
2023-03-31T21:01:37.410Z,9.38
2023-03-31T21:07:13.973Z,9.40
2023-03-31T21:13:18.481Z,9.34
2023-03-31T21:18:37.581Z,9.28
2023-03-31T21:23:53.985Z,9.23
2023-03-31T21:30:50.359Z,9.15
2023-03-31T21:36:45.316Z,9.07
2023-03-31T21:43:01.379Z,8.99
2023-03-31T21:49:43.352Z,8.84
2023-03-31T21:55:54.770Z,8.69
2023-03-31T22:02:35.773Z,8.54
2023-03-31T22:08:31.482Z,8.41
2023-03-31T22:15:15.601Z,8.31
2023-03-31T22:22:22.168Z,8.20
2023-03-31T22:28:38.009Z,8.13
2023-03-31T22:34:58.066Z,8.07
2023-03-31T22:40:33.687Z,8.05
2023-03-31T22:46:38.989Z,8.01
2023-03-31T22:52:17.842Z,7.98
2023-03-31T22:58:05.899Z,7.98
2023-03-31T23:04:11.770Z,7.94
2023-03-31T23:10:13.662Z,7.91
2023-03-31T23:17:03.607Z,7.87
2023-03-31T23:22:52.100Z,7.83
2023-03-31T23:29:09.783Z,7.77
2023-03-31T23:35:46.725Z,7.71
2023-03-31T23:42:27.859Z,7.64
2023-03-31T23:49:14.217Z,7.57
2023-03-31T23:55:26.152Z,7.46
